createdAt,value
2018-09-29T00:00:29.889Z,2.10
2018-09-29T00:05:52.157Z,1.80
2018-09-29T00:11:14.137Z,2.43
2018-09-29T00:16:36.326Z,1.97
2018-09-29T00:21:58.118Z,2.00
2018-09-29T00:27:20.330Z,2.07
2018-09-29T00:32:42.105Z,2.30
2018-09-29T00:38:04.162Z,2.10
2018-09-29T00:43:26.125Z,1.83
2018-09-29T00:48:48.098Z,2.10
2018-09-29T00:54:09.882Z,1.90
2018-09-29T00:59:32.047Z,1.77
2018-09-29T01:04:53.867Z,1.87
2018-09-29T01:10:15.914Z,2.07
2018-09-29T01:15:37.698Z,1.90
2018-09-29T01:20:59.935Z,2.30
2018-09-29T01:26:21.842Z,1.87
2018-09-29T01:31:43.972Z,2.07
2018-09-29T01:37:05.749Z,1.87
2018-09-29T01:42:27.877Z,1.77
2018-09-29T01:47:49.783Z,2.50
2018-09-29T01:53:11.946Z,1.30
2018-09-29T01:58:33.838Z,2.17
2018-09-29T02:03:56.042Z,1.50
2018-09-29T02:09:17.849Z,1.93
2018-09-29T02:14:40.087Z,1.73
2018-09-29T02:20:01.827Z,1.70
2018-09-29T02:25:23.929Z,1.93
2018-09-29T02:30:45.787Z,1.80
2018-09-29T02:36:07.942Z,2.23
2018-09-29T02:41:29.719Z,1.80
2018-09-29T02:46:51.825Z,1.87
2018-09-29T02:52:13.968Z,1.60
2018-09-29T02:57:35.906Z,1.83
2018-09-29T03:02:57.761Z,1.90
2018-09-29T03:08:19.831Z,2.23
2018-09-29T03:13:41.567Z,1.90
2018-09-29T03:19:03.683Z,1.90
2018-09-29T03:24:25.446Z,1.73
2018-09-29T03:29:47.502Z,2.07
2018-09-29T03:35:09.350Z,2.00
2018-09-29T03:40:31.486Z,2.17
2018-09-29T03:45:53.291Z,2.07
2018-09-29T03:51:15.493Z,2.40
2018-09-29T03:56:37.302Z,1.80
2018-09-29T04:01:59.455Z,2.20
2018-09-29T04:07:21.249Z,1.70
2018-09-29T04:12:43.460Z,2.33
2018-09-29T04:18:05.214Z,2.20
2018-09-29T04:23:27.351Z,1.60
2018-09-29T04:28:49.209Z,1.87
2018-09-29T04:34:11.633Z,2.10
2018-09-29T04:39:33.666Z,2.30
2018-09-29T04:44:55.651Z,2.37
2018-09-29T04:50:17.559Z,2.10
2018-09-29T04:55:39.361Z,1.70
2018-09-29T05:01:01.440Z,2.13
2018-09-29T05:06:23.447Z,1.93
2018-09-29T05:11:45.429Z,2.10
2018-09-29T05:17:07.687Z,2.17
2018-09-29T05:22:29.644Z,2.10
2018-09-29T05:27:51.451Z,2.27
2018-09-29T05:33:13.769Z,2.00
2018-09-29T05:38:35.664Z,1.70
2018-09-29T05:43:57.823Z,1.80
2018-09-29T05:49:19.803Z,2.03
2018-09-29T05:54:41.698Z,2.20
2018-09-29T06:00:03.654Z,1.60
2018-09-29T06:05:27.908Z,1.73
2018-09-29T06:10:50.130Z,1.53
2018-09-29T06:16:12.075Z,1.80
2018-09-29T06:21:34.219Z,1.70
2018-09-29T06:26:55.971Z,1.47
2018-09-29T06:32:18.162Z,1.80
2018-09-29T06:37:40.064Z,1.33
2018-09-29T06:43:02.084Z,1.70
2018-09-29T06:48:23.785Z,1.30
2018-09-29T06:53:46.300Z,1.73
2018-09-29T06:59:08.430Z,1.70
2018-09-29T07:04:30.274Z,1.93
2018-09-29T07:09:52.292Z,1.87
2018-09-29T07:15:14.415Z,1.67
2018-09-29T07:20:36.418Z,1.70
2018-09-29T07:25:58.481Z,1.80
2018-09-29T07:31:21.857Z,1.83
2018-09-29T07:36:43.725Z,2.10
2018-09-29T07:42:05.842Z,2.03
2018-09-29T07:47:27.598Z,1.50
2018-09-29T07:52:49.628Z,1.67
2018-09-29T07:58:11.811Z,2.00
2018-09-29T08:03:34.926Z,1.40
2018-09-29T08:08:56.758Z,1.87
2018-09-29T08:14:18.551Z,1.67
2018-09-29T08:19:40.566Z,1.87
2018-09-29T08:25:02.377Z,1.57
2018-09-29T08:30:24.700Z,1.30
2018-09-29T08:35:46.473Z,1.57
2018-09-29T08:41:08.474Z,1.83
2018-09-29T08:46:30.225Z,2.00
2018-09-29T08:51:52.370Z,1.83
2018-09-29T08:57:14.291Z,1.77
2018-09-29T09:02:36.614Z,1.73
2018-09-29T09:07:58.324Z,1.67
2018-09-29T09:13:20.473Z,1.80
2018-09-29T09:18:42.410Z,1.60
2018-09-29T09:24:04.584Z,2.00
2018-09-29T09:29:26.331Z,1.93
2018-09-29T09:34:48.428Z,1.60
2018-09-29T09:40:10.245Z,1.80
2018-09-29T09:45:32.310Z,2.30
2018-09-29T09:50:54.218Z,2.00
2018-09-29T09:56:16.281Z,1.40
2018-09-29T10:01:42.973Z,1.77
2018-09-29T10:07:08.077Z,6.93
2018-09-29T10:12:30.038Z,2.27
2018-09-29T10:17:52.199Z,2.53
2018-09-29T10:23:15.146Z,2.30
2018-09-29T10:28:37.470Z,2.30
2018-09-29T10:33:59.346Z,2.20
2018-09-29T10:39:21.807Z,2.40
2018-09-29T10:44:44.143Z,2.30
2018-09-29T10:50:06.001Z,2.37
2018-09-29T10:55:28.162Z,2.53
2018-09-29T11:00:49.921Z,2.00
2018-09-29T11:06:12.054Z,2.20
2018-09-29T11:11:34.254Z,2.10
2018-09-29T11:16:56.099Z,2.23
2018-09-29T11:22:17.905Z,1.67
2018-09-29T11:27:40.253Z,1.80
2018-09-29T11:33:02.480Z,2.23
2018-09-29T11:38:24.372Z,2.03
2018-09-29T11:43:46.978Z,2.40
2018-09-29T11:49:09.142Z,1.40
2018-09-29T11:54:31.026Z,1.93
2018-09-29T11:59:53.213Z,1.90
2018-09-29T12:05:15.214Z,1.40
2018-09-29T12:10:37.414Z,1.60
2018-09-29T12:15:59.238Z,2.07
2018-09-29T12:21:21.190Z,1.90
2018-09-29T12:26:43.286Z,2.10
2018-09-29T12:32:05.280Z,1.67
2018-09-29T12:37:27.218Z,1.80
2018-09-29T12:42:49.186Z,2.30
2018-09-29T12:48:11.340Z,2.30
2018-09-29T12:53:33.466Z,1.93
2018-09-29T12:58:55.191Z,1.37
2018-09-29T13:04:17.241Z,2.20
2018-09-29T13:09:39.067Z,2.00
2018-09-29T13:15:01.266Z,2.20
2018-09-29T13:20:24.887Z,2.50
2018-09-29T13:25:46.880Z,1.97
2018-09-29T13:31:08.757Z,1.90
2018-09-29T13:36:30.960Z,1.83
2018-09-29T13:41:53.383Z,2.10
2018-09-29T13:47:15.204Z,2.10
2018-09-29T13:52:38.065Z,1.40
2018-09-29T13:58:00.177Z,2.13
2018-09-29T14:03:22.389Z,1.70
2018-09-29T14:08:45.371Z,2.27
2018-09-29T14:14:11.472Z,1.50
2018-09-29T14:19:37.874Z,1.80
2018-09-29T14:25:00.234Z,1.97
2018-09-29T14:30:24.092Z,1.87
2018-09-29T14:35:46.182Z,2.10
2018-09-29T14:41:07.918Z,2.00
2018-09-29T14:46:29.968Z,2.10
2018-09-29T14:51:51.906Z,2.10
2018-09-29T14:57:14.009Z,2.00
2018-09-29T15:02:35.770Z,1.83
2018-09-29T15:07:57.885Z,3.50
2018-09-29T15:13:19.833Z,2.03
2018-09-29T15:18:41.846Z,2.03
2018-09-29T15:24:03.552Z,2.10
2018-09-29T15:29:25.821Z,2.40
2018-09-29T15:34:48.829Z,1.60
2018-09-29T15:40:10.529Z,2.00
2018-09-29T15:45:32.798Z,1.83
2018-09-29T15:50:54.626Z,1.60
2018-09-29T15:56:16.791Z,1.80
2018-09-29T16:01:40.239Z,1.40
2018-09-29T16:07:02.201Z,1.43
2018-09-29T16:12:24.137Z,1.53
2018-09-29T16:17:46.499Z,2.13
2018-09-29T16:23:08.459Z,3.23
2018-09-29T16:28:30.441Z,1.50
2018-09-29T16:33:53.142Z,1.17
2018-09-29T16:39:15.115Z,1.70
2018-09-29T16:44:37.117Z,1.50
2018-09-29T16:49:58.975Z,1.60
2018-09-29T16:55:21.088Z,1.40
2018-09-29T17:00:43.209Z,1.47
2018-09-29T17:06:05.131Z,1.60
2018-09-29T17:11:27.045Z,1.63
2018-09-29T17:16:49.518Z,1.63
2018-09-29T17:22:11.872Z,3.30
2018-09-29T17:27:33.670Z,3.10
2018-09-29T17:32:55.993Z,2.37
2018-09-29T17:38:18.322Z,1.70
2018-09-29T17:43:40.257Z,1.80
2018-09-29T17:49:04.335Z,2.27
2018-09-29T17:54:26.087Z,2.53
2018-09-29T17:59:48.779Z,2.57
2018-09-29T18:05:10.824Z,2.20
2018-09-29T18:10:33.012Z,2.30
2018-09-29T18:15:55.074Z,2.80
2018-09-29T18:21:16.718Z,3.53
2018-09-29T18:26:38.988Z,2.60
2018-09-29T18:32:00.799Z,3.23
2018-09-29T18:37:24.316Z,3.13
2018-09-29T18:42:46.360Z,3.17
2018-09-29T18:48:09.134Z,3.10
2018-09-29T18:53:34.358Z,26.73
2018-09-29T18:58:56.686Z,26.13
2018-09-29T19:04:19.459Z,40.60
2018-09-29T19:09:41.499Z,31.37
2018-09-29T19:15:04.714Z,16.33
2018-09-29T19:20:27.223Z,6.73
2018-09-29T19:25:48.868Z,3.23
2018-09-29T19:31:11.241Z,3.60
2018-09-29T19:36:33.033Z,3.23
2018-09-29T19:41:54.665Z,2.77
2018-09-29T19:47:16.702Z,2.23
2018-09-29T19:52:38.578Z,2.50
2018-09-29T19:58:00.617Z,2.13
2018-09-29T20:03:22.754Z,2.30
2018-09-29T20:08:44.648Z,2.17
2018-09-29T20:14:06.373Z,1.83
2018-09-29T20:19:28.722Z,1.90
2018-09-29T20:24:50.562Z,1.93
2018-09-29T20:30:12.774Z,2.00
2018-09-29T20:35:35.817Z,1.97
2018-09-29T20:40:58.075Z,1.87
2018-09-29T20:46:19.961Z,1.73
2018-09-29T20:51:42.218Z,2.10
2018-09-29T20:57:04.247Z,2.03
2018-09-29T21:02:26.235Z,1.70
2018-09-29T21:07:47.938Z,2.23
2018-09-29T21:13:10.164Z,2.00
2018-09-29T21:18:32.149Z,1.90
2018-09-29T21:23:54.747Z,2.13
2018-09-29T21:29:16.691Z,1.97
2018-09-29T21:34:38.764Z,2.40
2018-09-29T21:40:01.012Z,2.00
2018-09-29T21:45:23.554Z,1.80
2018-09-29T21:50:46.832Z,2.00
2018-09-29T21:56:08.999Z,1.97
2018-09-29T22:01:33.863Z,1.80
2018-09-29T22:06:55.966Z,1.60
2018-09-29T22:12:17.892Z,1.83
2018-09-29T22:17:40.092Z,2.13
2018-09-29T22:23:01.885Z,1.93
2018-09-29T22:28:24.025Z,2.17
2018-09-29T22:33:45.839Z,2.00
2018-09-29T22:39:10.105Z,2.07
2018-09-29T22:44:32.222Z,1.30
2018-09-29T22:49:54.225Z,1.73
2018-09-29T22:55:16.225Z,2.00
2018-09-29T23:00:38.383Z,2.10
2018-09-29T23:06:01.365Z,1.83
2018-09-29T23:11:23.209Z,1.77
2018-09-29T23:16:45.375Z,1.67
2018-09-29T23:22:07.189Z,1.70
2018-09-29T23:27:29.253Z,1.90
2018-09-29T23:32:51.125Z,1.60
2018-09-29T23:38:13.296Z,2.03
2018-09-29T23:43:35.293Z,1.37
2018-09-29T23:48:57.342Z,1.83
2018-09-29T23:54:19.152Z,1.90
2018-09-29T23:59:41.239Z,1.50
